createdAt,value
2017-10-31T00:02:15.963Z,7.23
2017-10-31T00:04:44.160Z,12.47
2017-10-31T00:07:12.991Z,10.00
2017-10-31T00:09:41.831Z,7.10
2017-10-31T00:12:09.902Z,9.97
2017-10-31T00:14:38.020Z,11.20
2017-10-31T00:17:06.094Z,12.47
2017-10-31T00:19:34.185Z,9.40
2017-10-31T00:22:02.279Z,7.33
2017-10-31T00:24:30.364Z,8.13
2017-10-31T00:26:58.436Z,9.40
2017-10-31T00:29:26.516Z,10.65
2017-10-31T00:31:55.359Z,13.05
2017-10-31T00:34:23.445Z,12.13
2017-10-31T00:36:51.536Z,8.45
2017-10-31T00:39:19.624Z,11.98
2017-10-31T00:41:48.536Z,10.93
2017-10-31T00:44:17.383Z,10.77
2017-10-31T00:46:45.459Z,12.63
2017-10-31T00:49:13.549Z,5.63
2017-10-31T00:51:41.619Z,10.03
2017-10-31T00:54:09.701Z,6.53
2017-10-31T00:56:38.669Z,7.15
2017-10-31T00:59:06.747Z,5.40
2017-10-31T01:01:35.035Z,5.80
2017-10-31T01:04:03.116Z,5.15
2017-10-31T01:06:31.961Z,13.68
2017-10-31T01:09:00.048Z,13.98
2017-10-31T01:11:28.120Z,11.50
2017-10-31T01:13:56.204Z,9.90
2017-10-31T01:16:24.342Z,13.27
2017-10-31T01:18:53.187Z,20.00
2017-10-31T01:21:22.027Z,21.65
2017-10-31T01:23:50.108Z,21.92
2017-10-31T01:26:18.176Z,12.57
2017-10-31T01:28:46.252Z,14.13
2017-10-31T01:31:14.319Z,13.88
2017-10-31T01:33:42.405Z,14.95
2017-10-31T01:36:10.480Z,9.80
2017-10-31T01:38:38.558Z,11.10
2017-10-31T01:41:06.652Z,17.27
2017-10-31T01:43:34.718Z,16.00
2017-10-31T01:46:02.917Z,11.95
2017-10-31T01:48:31.755Z,11.57
2017-10-31T01:50:59.824Z,12.43
2017-10-31T01:53:27.900Z,16.77
2017-10-31T01:55:55.968Z,16.12
2017-10-31T01:58:24.872Z,15.15
2017-10-31T02:00:52.932Z,17.85
2017-10-31T02:03:21.764Z,14.57
2017-10-31T02:05:49.835Z,14.70
2017-10-31T02:08:17.894Z,14.38
2017-10-31T02:10:45.983Z,16.30
2017-10-31T02:13:14.043Z,14.15
2017-10-31T02:15:42.204Z,11.20
2017-10-31T02:18:10.273Z,11.10
2017-10-31T02:20:38.344Z,11.88
2017-10-31T02:23:07.018Z,13.95
2017-10-31T02:25:35.096Z,11.95
2017-10-31T02:28:03.155Z,9.73
2017-10-31T02:30:31.228Z,14.82
2017-10-31T02:32:59.310Z,13.13
2017-10-31T02:35:27.381Z,15.93
2017-10-31T02:37:55.444Z,15.85
2017-10-31T02:40:23.516Z,13.30
2017-10-31T02:42:51.601Z,11.50
2017-10-31T02:45:19.679Z,15.00
2017-10-31T02:47:47.752Z,10.15
2017-10-31T02:50:15.903Z,9.13
2017-10-31T02:52:43.975Z,13.70
2017-10-31T02:55:12.688Z,12.55
2017-10-31T02:57:40.761Z,10.93
2017-10-31T03:00:08.855Z,10.90
2017-10-31T03:02:36.908Z,10.93
2017-10-31T03:05:04.983Z,14.65
2017-10-31T03:07:33.047Z,12.05
2017-10-31T03:10:01.127Z,11.40
2017-10-31T03:12:29.191Z,17.42
2017-10-31T03:14:57.263Z,12.32
2017-10-31T03:17:25.332Z,13.62
2017-10-31T03:19:53.411Z,17.50
2017-10-31T03:22:21.479Z,18.92
2017-10-31T03:24:49.555Z,14.82
2017-10-31T03:27:17.627Z,13.55
2017-10-31T03:29:45.704Z,13.82
2017-10-31T03:32:13.776Z,15.38
2017-10-31T03:34:41.863Z,14.52
2017-10-31T03:37:09.937Z,13.90
2017-10-31T03:39:38.008Z,14.55
2017-10-31T03:42:06.062Z,15.50
2017-10-31T03:44:34.141Z,14.52
2017-10-31T03:47:02.210Z,13.30
2017-10-31T03:49:30.287Z,9.68
2017-10-31T03:51:58.353Z,13.45
2017-10-31T03:54:26.429Z,13.10
2017-10-31T03:56:54.496Z,15.63
2017-10-31T03:59:22.592Z,14.68
2017-10-31T04:01:50.664Z,13.95
2017-10-31T04:04:18.744Z,11.45
2017-10-31T04:06:46.816Z,15.80
2017-10-31T04:09:14.879Z,13.20
2017-10-31T04:11:42.948Z,13.10
2017-10-31T04:14:11.028Z,18.98
2017-10-31T04:16:39.095Z,16.25
2017-10-31T04:19:07.212Z,14.30
2017-10-31T04:21:35.284Z,21.23
2017-10-31T04:24:03.347Z,12.98
2017-10-31T04:26:32.193Z,15.60
2017-10-31T04:29:00.288Z,12.80
2017-10-31T04:31:28.351Z,15.00
2017-10-31T04:33:56.432Z,14.13
2017-10-31T04:36:24.517Z,18.98
2017-10-31T04:38:52.591Z,14.65
2017-10-31T04:41:21.439Z,18.90
2017-10-31T04:43:49.529Z,16.95
2017-10-31T04:46:17.588Z,15.48
2017-10-31T04:48:45.650Z,21.17
2017-10-31T04:51:13.732Z,18.52
2017-10-31T04:53:41.805Z,22.62
2017-10-31T04:56:09.880Z,19.62
2017-10-31T04:58:37.946Z,17.10
2017-10-31T05:01:06.023Z,25.73
2017-10-31T05:03:34.096Z,20.77
2017-10-31T05:06:02.180Z,18.73
2017-10-31T05:08:30.255Z,18.48
2017-10-31T05:10:58.340Z,22.27
2017-10-31T05:13:26.396Z,18.95
2017-10-31T05:15:54.476Z,15.70
2017-10-31T05:18:22.544Z,17.65
2017-10-31T05:20:50.632Z,15.65
2017-10-31T05:23:18.811Z,22.35
2017-10-31T05:25:46.884Z,18.80
2017-10-31T05:28:15.740Z,14.65
2017-10-31T05:30:43.841Z,23.10
2017-10-31T05:33:11.904Z,17.48
2017-10-31T05:35:39.984Z,17.02
2017-10-31T05:38:08.047Z,19.25
2017-10-31T05:40:36.135Z,15.82
2017-10-31T05:43:04.203Z,15.98
2017-10-31T05:45:32.277Z,19.05
2017-10-31T05:48:00.359Z,20.37
2017-10-31T05:50:29.212Z,19.00
2017-10-31T05:52:57.283Z,15.88
2017-10-31T05:55:25.360Z,20.00
2017-10-31T05:57:53.431Z,19.85
2017-10-31T06:00:21.508Z,17.80
2017-10-31T06:02:49.587Z,21.98
2017-10-31T06:05:17.674Z,19.25
2017-10-31T06:07:45.736Z,17.05
2017-10-31T06:10:13.823Z,17.48
2017-10-31T06:12:42.660Z,21.00
2017-10-31T06:15:11.081Z,18.48
2017-10-31T06:17:39.150Z,29.02
2017-10-31T06:20:07.237Z,18.98
2017-10-31T06:22:40.845Z,19.25
2017-10-31T06:28:19.852Z,17.33
2017-10-31T06:30:53.429Z,20.40
2017-10-31T06:33:21.513Z,24.90
2017-10-31T06:35:49.591Z,22.00
2017-10-31T06:38:18.436Z,18.30
2017-10-31T06:40:47.288Z,21.10
2017-10-31T06:43:15.359Z,20.92
2017-10-31T06:45:43.435Z,19.85
2017-10-31T06:48:11.520Z,17.87
2017-10-31T06:50:39.599Z,21.62
2017-10-31T06:53:07.668Z,15.07
2017-10-31T06:55:35.748Z,17.75
2017-10-31T06:58:03.816Z,28.50
2017-10-31T07:00:31.896Z,18.87
2017-10-31T07:02:59.970Z,19.15
2017-10-31T07:05:28.046Z,23.38
2017-10-31T07:07:56.168Z,18.80
2017-10-31T07:10:25.011Z,20.88
2017-10-31T07:12:53.086Z,20.85
2017-10-31T07:15:21.939Z,19.90
2017-10-31T07:17:50.050Z,25.80
2017-10-31T07:20:18.914Z,17.30
2017-10-31T07:22:46.974Z,25.62
2017-10-31T07:25:15.068Z,16.42
2017-10-31T07:27:43.140Z,20.12
2017-10-31T07:30:11.231Z,28.05
2017-10-31T07:32:39.310Z,22.98
2017-10-31T07:35:08.152Z,25.35
2017-10-31T07:37:36.235Z,20.95
2017-10-31T07:40:04.309Z,22.42
2017-10-31T07:42:32.392Z,21.80
2017-10-31T07:45:00.476Z,29.67
2017-10-31T07:47:28.551Z,25.50
2017-10-31T07:49:56.619Z,22.40
2017-10-31T07:52:24.701Z,26.90
2017-10-31T07:54:53.539Z,20.00
2017-10-31T07:57:22.388Z,27.58
2017-10-31T07:59:51.240Z,28.05
2017-10-31T08:02:19.340Z,29.67
2017-10-31T08:04:47.421Z,19.67
2017-10-31T08:07:16.284Z,20.05
2017-10-31T08:09:44.352Z,21.08
2017-10-31T08:12:12.444Z,23.58
2017-10-31T08:14:40.512Z,21.17
2017-10-31T08:17:08.592Z,23.85
2017-10-31T08:19:36.667Z,25.92
2017-10-31T08:22:04.760Z,23.45
2017-10-31T08:24:33.603Z,22.08
2017-10-31T08:27:01.826Z,21.45
2017-10-31T08:29:30.664Z,28.25
2017-10-31T08:31:58.756Z,21.17
2017-10-31T08:34:26.839Z,31.67
2017-10-31T08:36:54.929Z,30.30
2017-10-31T08:39:23.802Z,24.35
2017-10-31T08:41:51.880Z,21.30
2017-10-31T08:44:20.737Z,21.83
2017-10-31T08:46:48.828Z,33.85
2017-10-31T08:49:16.899Z,21.25
2017-10-31T08:51:44.983Z,32.85
2017-10-31T08:54:13.056Z,28.67
2017-10-31T08:56:41.145Z,25.15
2017-10-31T08:59:09.984Z,23.85
2017-10-31T09:01:38.944Z,23.48
2017-10-31T09:04:07.015Z,24.30
2017-10-31T09:06:35.114Z,24.77
2017-10-31T09:09:03.952Z,24.55
2017-10-31T09:11:32.828Z,21.70
2017-10-31T09:14:00.900Z,21.83
2017-10-31T09:16:28.986Z,30.27
2017-10-31T09:18:57.927Z,27.70
2017-10-31T09:21:26.775Z,25.98
2017-10-31T09:23:55.620Z,28.08
2017-10-31T09:26:23.707Z,25.83
2017-10-31T09:28:51.785Z,25.30
2017-10-31T09:31:19.879Z,24.50
2017-10-31T09:33:48.721Z,22.75
2017-10-31T09:36:16.803Z,26.40
2017-10-31T09:38:44.883Z,23.75
2017-10-31T09:41:12.970Z,19.90
2017-10-31T09:43:41.047Z,24.27
2017-10-31T09:46:09.133Z,19.05
2017-10-31T09:48:37.980Z,19.02
2017-10-31T09:51:06.067Z,29.60
2017-10-31T09:53:34.139Z,16.45
2017-10-31T09:56:02.231Z,22.05
2017-10-31T09:58:30.304Z,18.95
2017-10-31T10:00:58.395Z,19.90
2017-10-31T10:03:27.248Z,20.98
2017-10-31T10:05:55.337Z,18.27
2017-10-31T10:08:23.426Z,11.05
2017-10-31T10:10:52.284Z,24.70
2017-10-31T10:13:20.372Z,17.35
2017-10-31T10:15:48.452Z,12.27
2017-10-31T10:18:16.610Z,8.27
2017-10-31T10:20:44.684Z,9.73
2017-10-31T10:23:12.773Z,10.40
2017-10-31T10:25:40.846Z,9.30
2017-10-31T10:28:08.945Z,9.40
2017-10-31T10:30:37.783Z,8.97
2017-10-31T10:33:05.859Z,10.67
2017-10-31T10:35:33.918Z,8.00
2017-10-31T10:38:02.002Z,6.93
2017-10-31T10:40:30.072Z,8.03
2017-10-31T10:42:58.161Z,12.00
2017-10-31T10:45:26.272Z,7.00
2017-10-31T10:47:55.124Z,7.70
2017-10-31T10:50:23.196Z,5.30
2017-10-31T10:52:51.534Z,15.40
2017-10-31T10:55:19.594Z,8.10
2017-10-31T10:57:47.684Z,8.80
2017-10-31T11:00:15.755Z,9.17
2017-10-31T11:02:43.833Z,8.17
2017-10-31T11:05:12.233Z,11.70
2017-10-31T11:07:40.317Z,4.80
2017-10-31T11:10:08.460Z,4.50
2017-10-31T11:12:36.529Z,8.57
2017-10-31T11:15:04.599Z,5.93
2017-10-31T11:17:32.677Z,8.97
2017-10-31T11:20:01.514Z,4.53
2017-10-31T11:22:29.591Z,1.87
2017-10-31T11:24:58.428Z,2.97
2017-10-31T11:27:26.513Z,5.93
2017-10-31T11:29:54.583Z,4.50
2017-10-31T11:32:22.667Z,5.37
2017-10-31T11:34:50.740Z,7.60
2017-10-31T11:37:18.824Z,5.20
2017-10-31T11:39:46.900Z,4.50
2017-10-31T11:42:14.971Z,2.60
2017-10-31T11:44:43.043Z,2.10
2017-10-31T11:47:11.132Z,6.40
2017-10-31T11:49:39.196Z,3.53
2017-10-31T11:52:07.279Z,3.17
2017-10-31T11:54:35.355Z,6.67
2017-10-31T11:57:04.198Z,5.33
2017-10-31T11:59:32.273Z,6.53
2017-10-31T12:02:01.171Z,3.83
2017-10-31T12:04:29.255Z,5.93
2017-10-31T12:06:57.336Z,5.80
2017-10-31T12:09:25.407Z,7.53
2017-10-31T12:11:53.485Z,7.03
2017-10-31T12:14:21.556Z,8.30
2017-10-31T12:16:49.622Z,9.03
2017-10-31T12:19:17.707Z,7.07
2017-10-31T12:21:45.783Z,9.07
2017-10-31T12:24:13.856Z,8.30
2017-10-31T12:26:41.936Z,12.00
2017-10-31T12:29:10.772Z,7.83
2017-10-31T12:31:38.852Z,8.10
2017-10-31T12:34:06.936Z,11.90
2017-10-31T12:36:35.014Z,6.73
2017-10-31T12:39:03.283Z,4.87
2017-10-31T12:41:31.364Z,4.50
2017-10-31T12:43:59.456Z,5.40
2017-10-31T12:46:27.517Z,4.60
2017-10-31T12:48:55.604Z,8.47
2017-10-31T12:51:23.666Z,5.00
2017-10-31T12:53:51.747Z,3.90
2017-10-31T12:56:19.811Z,7.83
2017-10-31T12:58:47.884Z,8.03
2017-10-31T13:01:15.947Z,6.27
2017-10-31T13:03:44.044Z,4.43
2017-10-31T13:06:12.132Z,4.30
2017-10-31T13:08:40.984Z,6.00
2017-10-31T13:11:09.078Z,5.60
2017-10-31T13:13:37.152Z,5.13
2017-10-31T13:16:05.992Z,4.77
2017-10-31T13:18:34.083Z,6.50
2017-10-31T13:21:02.151Z,5.87
2017-10-31T13:23:30.232Z,10.87
2017-10-31T13:25:58.377Z,4.70
2017-10-31T13:28:26.819Z,5.23
2017-10-31T13:30:56.044Z,4.80
2017-10-31T13:33:24.520Z,5.10
2017-10-31T13:35:53.844Z,5.40
2017-10-31T13:38:22.324Z,8.30
2017-10-31T13:40:50.765Z,5.80
2017-10-31T13:43:20.907Z,8.33
2017-10-31T13:45:48.979Z,6.43
2017-10-31T13:48:17.322Z,5.17
2017-10-31T13:50:45.729Z,11.17
2017-10-31T13:53:14.571Z,5.07
2017-10-31T13:55:42.640Z,5.03
2017-10-31T13:58:10.735Z,5.73
2017-10-31T14:00:39.046Z,4.73
2017-10-31T14:03:07.388Z,3.90
2017-10-31T14:05:35.600Z,3.40
2017-10-31T14:08:04.745Z,4.30
2017-10-31T14:10:33.063Z,3.47
2017-10-31T14:13:01.902Z,6.80
2017-10-31T14:15:29.980Z,4.90
2017-10-31T14:17:58.307Z,6.30
2017-10-31T14:20:27.419Z,6.03
2017-10-31T14:22:55.494Z,4.73
2017-10-31T14:25:23.564Z,4.50
2017-10-31T14:27:51.657Z,4.00
2017-10-31T14:30:19.732Z,5.40
2017-10-31T14:32:47.805Z,5.20
2017-10-31T14:35:15.877Z,4.20
2017-10-31T14:37:43.956Z,5.30
2017-10-31T14:40:12.019Z,3.90
2017-10-31T14:42:40.096Z,4.40
2017-10-31T14:45:08.164Z,4.40
2017-10-31T14:47:36.239Z,3.50
2017-10-31T14:50:04.318Z,3.50
2017-10-31T14:52:33.151Z,4.87
2017-10-31T14:55:01.216Z,4.70
2017-10-31T14:57:29.287Z,6.33
2017-10-31T14:59:57.369Z,4.10
2017-10-31T15:02:25.439Z,5.23
2017-10-31T15:04:53.507Z,4.50
2017-10-31T15:07:21.583Z,4.10
2017-10-31T15:09:49.654Z,4.57
2017-10-31T15:12:17.720Z,5.30
2017-10-31T15:14:45.802Z,5.20
2017-10-31T15:17:13.870Z,5.87
2017-10-31T15:19:41.954Z,5.43
2017-10-31T15:22:10.792Z,4.43
2017-10-31T15:24:38.876Z,5.87
2017-10-31T15:27:07.064Z,4.70
2017-10-31T15:29:35.152Z,8.03
2017-10-31T15:32:03.224Z,5.83
2017-10-31T15:34:31.304Z,6.30
2017-10-31T15:36:59.381Z,6.33
2017-10-31T15:39:27.451Z,5.28
2017-10-31T15:41:55.531Z,6.37
2017-10-31T15:44:24.400Z,5.67
2017-10-31T15:46:52.482Z,6.27
2017-10-31T15:49:20.556Z,6.77
2017-10-31T15:51:48.631Z,6.13
2017-10-31T15:54:16.747Z,10.97
2017-10-31T15:56:44.832Z,6.57
2017-10-31T15:59:12.904Z,7.63
2017-10-31T16:01:41.741Z,8.33
2017-10-31T16:04:09.824Z,7.30
2017-10-31T16:06:38.668Z,7.13
2017-10-31T16:09:06.740Z,7.20
2017-10-31T16:11:34.807Z,14.27
2017-10-31T16:14:02.883Z,7.13
2017-10-31T16:16:30.955Z,7.33
2017-10-31T16:18:59.036Z,8.27
2017-10-31T16:21:27.117Z,12.00
2017-10-31T16:23:55.199Z,9.93
2017-10-31T16:26:23.267Z,9.93
2017-10-31T16:28:51.353Z,26.07
2017-10-31T16:31:19.475Z,10.47
2017-10-31T16:33:47.565Z,8.77
2017-10-31T16:36:15.643Z,13.53
2017-10-31T16:38:43.731Z,11.27
2017-10-31T16:41:11.817Z,12.07
2017-10-31T16:43:39.900Z,9.30
2017-10-31T16:46:08.759Z,7.33
2017-10-31T16:48:36.839Z,8.03
2017-10-31T16:51:04.931Z,11.00
2017-10-31T16:53:33.015Z,11.40
2017-10-31T16:56:01.863Z,8.60
2017-10-31T16:58:29.940Z,8.37
2017-10-31T17:00:58.005Z,9.33
2017-10-31T17:03:26.087Z,10.57
2017-10-31T17:05:54.147Z,12.60
2017-10-31T17:08:22.231Z,15.30
2017-10-31T17:10:50.312Z,16.33
2017-10-31T17:13:18.396Z,15.30
2017-10-31T17:15:46.467Z,11.10
2017-10-31T17:18:14.547Z,11.80
2017-10-31T17:20:43.404Z,14.50
2017-10-31T17:23:11.497Z,11.40
2017-10-31T17:25:39.563Z,13.73
2017-10-31T17:28:07.650Z,14.80
2017-10-31T17:30:35.760Z,13.93
2017-10-31T17:33:03.850Z,12.50
2017-10-31T17:35:31.916Z,14.13
2017-10-31T17:38:00.003Z,33.27
2017-10-31T17:40:28.088Z,33.40
2017-10-31T17:42:56.164Z,20.07
2017-10-31T17:45:24.380Z,15.27
2017-10-31T17:47:53.211Z,44.60
2017-10-31T17:50:21.305Z,17.57
2017-10-31T17:52:49.417Z,14.53
2017-10-31T17:55:18.263Z,26.50
2017-10-31T17:57:46.342Z,21.47
2017-10-31T18:00:14.432Z,23.20
2017-10-31T18:02:42.498Z,31.57
2017-10-31T18:05:10.584Z,28.60
2017-10-31T18:07:39.497Z,17.90
2017-10-31T18:10:07.597Z,41.60
2017-10-31T18:12:35.667Z,23.00
2017-10-31T18:15:03.796Z,13.87
2017-10-31T18:17:32.655Z,18.58
2017-10-31T18:20:00.736Z,41.23
2017-10-31T18:22:28.855Z,18.80
2017-10-31T18:24:56.948Z,21.70
2017-10-31T18:27:25.019Z,26.73
2017-10-31T18:29:53.223Z,23.93
2017-10-31T18:32:21.314Z,46.90
2017-10-31T18:34:49.747Z,29.63
2017-10-31T18:37:17.837Z,33.30
2017-10-31T18:39:45.914Z,18.37
2017-10-31T18:42:13.996Z,20.27
2017-10-31T18:44:42.079Z,20.20
2017-10-31T18:47:10.156Z,29.77
2017-10-31T18:49:38.250Z,103.90
2017-10-31T18:52:06.333Z,27.33
2017-10-31T18:54:34.409Z,58.40
2017-10-31T18:57:02.487Z,21.17
2017-10-31T18:59:30.572Z,37.77
2017-10-31T19:01:58.660Z,28.50
2017-10-31T19:04:26.739Z,35.00
2017-10-31T19:06:54.831Z,31.90
2017-10-31T19:09:22.923Z,26.70
2017-10-31T19:11:51.769Z,26.13
2017-10-31T19:14:19.867Z,42.20
2017-10-31T19:16:47.947Z,30.50
2017-10-31T19:19:16.024Z,14.53
2017-10-31T19:21:44.868Z,26.33
2017-10-31T19:24:12.980Z,14.40
2017-10-31T19:26:41.061Z,17.83
2017-10-31T19:29:09.132Z,16.65
2017-10-31T19:31:37.223Z,16.70
2017-10-31T19:34:05.300Z,15.30
2017-10-31T19:36:33.397Z,19.10
2017-10-31T19:39:01.481Z,20.23
2017-10-31T19:41:29.599Z,19.05
2017-10-31T19:43:58.448Z,21.45
2017-10-31T19:46:26.542Z,18.90
2017-10-31T19:48:54.625Z,18.20
2017-10-31T19:51:22.717Z,20.23
2017-10-31T19:53:51.557Z,17.35
2017-10-31T19:56:19.645Z,17.48
2017-10-31T19:58:47.733Z,15.57
2017-10-31T20:01:15.815Z,18.25
2017-10-31T20:03:44.688Z,17.83
2017-10-31T20:06:12.775Z,19.15
2017-10-31T20:08:41.633Z,23.60
2017-10-31T20:11:09.720Z,17.17
2017-10-31T20:13:37.802Z,21.35
2017-10-31T20:16:05.883Z,19.52
2017-10-31T20:18:34.729Z,20.65
2017-10-31T20:21:02.819Z,22.30
2017-10-31T20:23:30.902Z,27.55
2017-10-31T20:25:58.987Z,27.65
2017-10-31T20:28:27.055Z,38.00
2017-10-31T20:30:55.142Z,29.20
2017-10-31T20:33:23.986Z,34.90
2017-10-31T20:35:52.080Z,27.58
2017-10-31T20:38:20.160Z,29.20
2017-10-31T20:40:48.247Z,27.25
2017-10-31T20:43:17.088Z,22.80
2017-10-31T20:45:45.176Z,25.80
2017-10-31T20:48:13.284Z,26.37
2017-10-31T20:50:41.371Z,23.50
2017-10-31T20:53:10.273Z,22.05
2017-10-31T20:55:38.316Z,18.10
2017-10-31T20:58:07.164Z,21.23
2017-10-31T21:00:35.268Z,21.40
2017-10-31T21:03:03.353Z,20.75
2017-10-31T21:05:31.433Z,21.35
2017-10-31T21:08:00.278Z,21.48
2017-10-31T21:10:28.369Z,19.62
2017-10-31T21:12:56.434Z,18.00
2017-10-31T21:15:24.519Z,18.90
2017-10-31T21:17:52.599Z,19.70
2017-10-31T21:20:20.692Z,17.20
2017-10-31T21:22:49.551Z,17.60
2017-10-31T21:25:17.640Z,19.55
2017-10-31T21:27:45.726Z,18.02
2017-10-31T21:30:14.599Z,20.08
2017-10-31T21:32:42.680Z,24.95
2017-10-31T21:35:10.767Z,34.28
2017-10-31T21:37:39.617Z,23.00
2017-10-31T21:40:07.703Z,24.42
2017-10-31T21:42:35.795Z,28.73
2017-10-31T21:45:04.664Z,23.35
2017-10-31T21:47:32.739Z,27.77
2017-10-31T21:50:00.822Z,21.50
2017-10-31T21:52:28.896Z,25.23
2017-10-31T21:54:56.995Z,19.92
2017-10-31T21:57:25.072Z,19.70
2017-10-31T21:59:53.145Z,16.17
2017-10-31T22:02:21.236Z,16.40
2017-10-31T22:04:49.311Z,18.62
2017-10-31T22:07:17.396Z,17.37
2017-10-31T22:09:45.480Z,16.62
2017-10-31T22:12:13.564Z,15.88
2017-10-31T22:14:41.641Z,15.55
2017-10-31T22:17:09.723Z,16.95
2017-10-31T22:19:37.814Z,37.65
2017-10-31T22:22:05.931Z,22.27
2017-10-31T22:24:34.011Z,19.92
2017-10-31T22:27:03.757Z,26.73
2017-10-31T22:29:31.832Z,26.75
2017-10-31T22:31:59.920Z,27.62
2017-10-31T22:34:28.768Z,22.55
2017-10-31T22:36:56.849Z,23.62
2017-10-31T22:39:24.922Z,22.70
2017-10-31T22:41:53.005Z,28.80
2017-10-31T22:44:21.096Z,28.95
2017-10-31T22:46:49.949Z,28.77
2017-10-31T22:49:18.020Z,35.72
2017-10-31T22:51:46.103Z,18.15
2017-10-31T22:54:14.188Z,22.40
2017-10-31T22:56:42.266Z,30.12
2017-10-31T22:59:11.113Z,28.67
2017-10-31T23:01:39.192Z,24.30
2017-10-31T23:04:07.269Z,26.75
2017-10-31T23:06:35.353Z,34.47
2017-10-31T23:09:03.447Z,20.02
2017-10-31T23:11:32.650Z,25.77
2017-10-31T23:14:01.491Z,25.12
2017-10-31T23:16:29.600Z,33.53
2017-10-31T23:18:57.689Z,35.40
2017-10-31T23:21:26.542Z,28.80
2017-10-31T23:23:54.638Z,30.02
2017-10-31T23:26:22.800Z,18.30
2017-10-31T23:28:50.885Z,42.83
2017-10-31T23:31:18.981Z,22.83
2017-10-31T23:33:47.819Z,21.25
2017-10-31T23:36:15.907Z,45.50
2017-10-31T23:38:43.993Z,103.72
2017-10-31T23:41:12.068Z,25.95
2017-10-31T23:43:40.922Z,50.22
2017-10-31T23:46:09.000Z,45.63
2017-10-31T23:48:37.081Z,20.48
2017-10-31T23:51:05.208Z,31.77
2017-10-31T23:53:33.267Z,36.15
2017-10-31T23:56:01.348Z,29.10
2017-10-31T23:58:29.418Z,28.08
